Accueil
METAR-TAF:

METAR-TAF

Aéroports :

Balikesir, Turquie

latitude: 39-37N, longitude: 027-55E, altitude: 101 m

Observation

Le bulletin a été fait il y a 42 minutes, à 03:50 UTC
Vent 11 kt de nord
Température 6°C
Humidité 93%
Pression 1016 hPa
Visibilité 10 km ou plus
Quelques nuages à une hauteur de 1000 ft
Nuages épars à une hauteur de 3500 ft
Nuages fragmentés à une hauteur de 10000 ft
faibles averses de pluie

METAR: LTBF 230350Z 36011KT 9999 -SHRA FEW010 SCT035 BKN100 06/05 Q1016 NOSIG

Heure: 07:32 (04:32 UTC)

Prévision

Le bulletin a été fait il y a 2 heures et 52 minutes, à 01:40 UTC
Prévision valable du 23 à 03 UTC au 23 à 12 UTC
Vent 12 kt de nord
Visibilité 10 km ou plus
Nuages épars à une hauteur de 3500 ft
Nuages fragmentés à une hauteur de 10000 ft
faibles averses de pluie

TAF: LTBF 230140Z 2303/2312 01012KT 9999 -SHRA SCT035 BKN100

Observations et prévisions météorologiques de plus de 4000 aéroports (messages METAR et TAF).

Les stations disponibles sont représentées par des disques jaunes et rouges sur la carte.

Passer la souris dessus pour voir le nom de la station.

Cliquer dessus pour voir les observations et prévisions météorologiques.

Pour changer de carte: cliquez sur les boutons verts avec une croix noire pour zoomer, sur le bouton vert avec un tiret pour effectuer un zoom arrière, ou sur les flèches vertes pour les cartes adjacentes.


METAR-TAF: